Aviation Digital Data Service (ADDS)

Output produced by METARs form (1933 UTC 18 June 2019)
found at http://www.aviationweather.gov/metar/data/
 
TAF UMBB 181405Z 1815/1824 VRB02MPS 6000 BKN020 TX25/1815Z TN17/1824Z 
       
UMGG 181900Z 34003MPS CAVOK 22/14 Q1017 R28/D NOSIG
TAF COR UMGG 181700Z 1818/1918 36006MPS 9999 BKN025 TX25/1911Z TN15/1902Z 
     TEMPO 1822/1904 2000 BR SCT004 
     BECMG 1904/1906 05005MPS
       
UMMG 181500Z 31003MPS 9999 FEW033 BKN200 26/09 Q1018 NOSIG
TAF UMMG 181405Z 1815/1824 35005MPS 9999 SCT020 
     TEMPO 1815/1821 VRB02MPS 
     TEMPO 1821/1824 4000 BR BKN007
       
UMMS 181900Z 36001MPS CAVOK 17/13 Q1018 R88/D NOSIG
TAF UMMS 181704Z 1818/1918 VRB02MPS 9999 NSC 
     TEMPO 1823/1904 2000 BR SCT003 
     BECMG 1907/1909 34005G10MPS SCT030
       
TAF UMOO 181100Z 1812/1821 33005MPS 9999 BKN020 
     TEMPO 1812/1818 35005G10MPS 4000 -SHRA SCT020CB